sensor_id;sensor_type;location;lat;lon;timestamp;P1;durP1;ratioP1;P2;durP2;ratioP2
1308;SDS011;647;48.840;9.314;2023-04-01T00:00:24;60.43;;;3.10;;
1308;SDS011;647;48.840;9.314;2023-04-01T00:02:51;57.30;;;2.47;;
1308;SDS011;647;48.840;9.314;2023-04-01T00:05:18;57.40;;;2.70;;
1308;SDS011;647;48.840;9.314;2023-04-01T00:07:46;57.90;;;2.80;;
1308;SDS011;647;48.840;9.314;2023-04-01T00:10:13;57.73;;;2.67;;
1308;SDS011;647;48.840;9.314;2023-04-01T00:12:42;58.10;;;2.70;;
1308;SDS011;647;48.840;9.314;2023-04-01T00:15:10;59.80;;;2.90;;
1308;SDS011;647;48.840;9.314;2023-04-01T00:17:37;58.37;;;2.80;;
1308;SDS011;647;48.840;9.314;2023-04-01T00:20:05;59.50;;;3.27;;
1308;SDS011;647;48.840;9.314;2023-04-01T00:22:33;57.57;;;2.83;;
1308;SDS011;647;48.840;9.314;2023-04-01T00:25:00;58.67;;;2.93;;
1308;SDS011;647;48.840;9.314;2023-04-01T00:27:27;57.23;;;2.60;;
1308;SDS011;647;48.840;9.314;2023-04-01T00:29:56;57.40;;;2.60;;
1308;SDS011;647;48.840;9.314;2023-04-01T00:32:23;56.97;;;2.80;;
1308;SDS011;647;48.840;9.314;2023-04-01T00:34:51;58.97;;;2.63;;
1308;SDS011;647;48.840;9.314;2023-04-01T00:37:18;58.17;;;3.00;;
1308;SDS011;647;48.840;9.314;2023-04-01T00:39:46;57.90;;;2.70;;
1308;SDS011;647;48.840;9.314;2023-04-01T00:42:13;65.37;;;2.70;;
1308;SDS011;647;48.840;9.314;2023-04-01T00:44:40;58.17;;;2.87;;
1308;SDS011;647;48.840;9.314;2023-04-01T00:47:09;59.30;;;2.90;;
1308;SDS011;647;48.840;9.314;2023-04-01T00:49:37;58.00;;;2.90;;
1308;SDS011;647;48.840;9.314;2023-04-01T00:52:06;59.37;;;2.80;;
1308;SDS011;647;48.840;9.314;2023-04-01T00:54:34;57.23;;;2.77;;
1308;SDS011;647;48.840;9.314;2023-04-01T00:57:03;57.80;;;2.80;;
1308;SDS011;647;48.840;9.314;2023-04-01T00:59:32;57.47;;;3.10;;
1308;SDS011;647;48.840;9.314;2023-04-01T01:02:00;57.50;;;3.10;;
1308;SDS011;647;48.840;9.314;2023-04-01T01:04:30;59.67;;;2.73;;
1308;SDS011;647;48.840;9.314;2023-04-01T01:07:00;59.03;;;2.67;;
1308;SDS011;647;48.840;9.314;2023-04-01T01:09:31;59.17;;;2.63;;
1308;SDS011;647;48.840;9.314;2023-04-01T01:12:05;59.10;;;2.57;;
1308;SDS011;647;48.840;9.314;2023-04-01T01:14:36;57.50;;;2.73;;
1308;SDS011;647;48.840;9.314;2023-04-01T01:17:06;59.50;;;3.23;;
1308;SDS011;647;48.840;9.314;2023-04-01T01:19:57;57.97;;;2.93;;
1308;SDS011;647;48.840;9.314;2023-04-01T01:22:33;62.57;;;3.90;;
1308;SDS011;647;48.840;9.314;2023-04-01T01:25:15;57.70;;;2.80;;
1308;SDS011;647;48.840;9.314;2023-04-01T01:27:47;57.80;;;3.00;;
1308;SDS011;647;48.840;9.314;2023-04-01T01:30:19;59.97;;;2.87;;
1308;SDS011;647;48.840;9.314;2023-04-01T01:32:55;58.27;;;2.60;;
1308;SDS011;647;48.840;9.314;2023-04-01T01:35:24;58.90;;;3.30;;
1308;SDS011;647;48.840;9.314;2023-04-01T01:37:54;57.90;;;2.97;;
1308;SDS011;647;48.840;9.314;2023-04-01T01:40:22;59.70;;;3.00;;
1308;SDS011;647;48.840;9.314;2023-04-01T01:42:51;60.00;;;2.83;;
1308;SDS011;647;48.840;9.314;2023-04-01T01:45:21;58.63;;;2.60;;
1308;SDS011;647;48.840;9.314;2023-04-01T01:47:50;59.90;;;2.60;;
1308;SDS011;647;48.840;9.314;2023-04-01T01:50:18;58.23;;;2.37;;
1308;SDS011;647;48.840;9.314;2023-04-01T01:52:47;58.67;;;3.03;;
1308;SDS011;647;48.840;9.314;2023-04-01T01:55:24;60.80;;;3.10;;
1308;SDS011;647;48.840;9.314;2023-04-01T01:57:53;60.80;;;2.87;;
1308;SDS011;647;48.840;9.314;2023-04-01T02:00:21;58.00;;;2.73;;
1308;SDS011;647;48.840;9.314;2023-04-01T02:02:49;58.80;;;3.27;;
1308;SDS011;647;48.840;9.314;2023-04-01T02:05:17;58.07;;;2.73;;
1308;SDS011;647;48.840;9.314;2023-04-01T02:07:48;60.33;;;3.00;;
1308;SDS011;647;48.840;9.314;2023-04-01T02:10:18;58.20;;;2.63;;
1308;SDS011;647;48.840;9.314;2023-04-01T02:12:46;57.67;;;2.73;;
1308;SDS011;647;48.840;9.314;2023-04-01T02:15:14;60.90;;;2.90;;
1308;SDS011;647;48.840;9.314;2023-04-01T02:17:43;57.50;;;2.40;;
1308;SDS011;647;48.840;9.314;2023-04-01T02:20:11;59.13;;;3.00;;
1308;SDS011;647;48.840;9.314;2023-04-01T02:22:40;61.67;;;3.20;;
1308;SDS011;647;48.840;9.314;2023-04-01T02:25:11;57.70;;;2.70;;
1308;SDS011;647;48.840;9.314;2023-04-01T02:27:39;60.00;;;3.47;;
1308;SDS011;647;48.840;9.314;2023-04-01T02:30:07;58.90;;;2.83;;
1308;SDS011;647;48.840;9.314;2023-04-01T02:32:34;59.20;;;2.73;;
1308;SDS011;647;48.840;9.314;2023-04-01T02:35:03;57.90;;;2.60;;
1308;SDS011;647;48.840;9.314;2023-04-01T02:37:31;58.30;;;3.37;;
1308;SDS011;647;48.840;9.314;2023-04-01T02:39:58;58.77;;;3.13;;
1308;SDS011;647;48.840;9.314;2023-04-01T02:42:27;59.13;;;3.00;;
1308;SDS011;647;48.840;9.314;2023-04-01T02:44:54;58.47;;;3.37;;
1308;SDS011;647;48.840;9.314;2023-04-01T02:47:21;62.60;;;3.53;;
1308;SDS011;647;48.840;9.314;2023-04-01T02:49:48;58.77;;;2.87;;
1308;SDS011;647;48.840;9.314;2023-04-01T02:52:15;58.97;;;3.00;;
1308;SDS011;647;48.840;9.314;2023-04-01T02:54:42;58.90;;;2.77;;
1308;SDS011;647;48.840;9.314;2023-04-01T02:57:09;57.60;;;2.70;;
1308;SDS011;647;48.840;9.314;2023-04-01T02:59:38;58.63;;;2.50;;
1308;SDS011;647;48.840;9.314;2023-04-01T03:02:05;58.47;;;2.90;;
1308;SDS011;647;48.840;9.314;2023-04-01T03:04:32;57.80;;;2.87;;
1308;SDS011;647;48.840;9.314;2023-04-01T03:06:59;58.37;;;2.70;;
1308;SDS011;647;48.840;9.314;2023-04-01T03:09:26;59.47;;;2.70;;
1308;SDS011;647;48.840;9.314;2023-04-01T03:11:54;61.40;;;2.70;;
1308;SDS011;647;48.840;9.314;2023-04-01T03:14:21;58.30;;;3.00;;
1308;SDS011;647;48.840;9.314;2023-04-01T03:16:50;56.57;;;2.50;;
1308;SDS011;647;48.840;9.314;2023-04-01T03:19:17;58.57;;;2.53;;
1308;SDS011;647;48.840;9.314;2023-04-01T03:21:44;59.30;;;2.70;;
1308;SDS011;647;48.840;9.314;2023-04-01T03:24:11;58.07;;;2.77;;
1308;SDS011;647;48.840;9.314;2023-04-01T03:26:38;58.43;;;2.83;;
1308;SDS011;647;48.840;9.314;2023-04-01T03:29:05;58.00;;;2.67;;
1308;SDS011;647;48.840;9.314;2023-04-01T03:31:32;58.30;;;2.63;;
1308;SDS011;647;48.840;9.314;2023-04-01T03:34:01;58.37;;;2.70;;
1308;SDS011;647;48.840;9.314;2023-04-01T03:36:28;57.90;;;2.60;;
1308;SDS011;647;48.840;9.314;2023-04-01T03:38:55;57.50;;;2.50;;
1308;SDS011;647;48.840;9.314;2023-04-01T03:41:23;57.67;;;2.97;;
1308;SDS011;647;48.840;9.314;2023-04-01T03:43:50;57.30;;;2.50;;
1308;SDS011;647;48.840;9.314;2023-04-01T03:46:17;60.70;;;2.43;;
1308;SDS011;647;48.840;9.314;2023-04-01T03:48:45;57.70;;;2.70;;
1308;SDS011;647;48.840;9.314;2023-04-01T03:51:13;57.17;;;2.73;;
1308;SDS011;647;48.840;9.314;2023-04-01T03:53:40;57.47;;;2.30;;
1308;SDS011;647;48.840;9.314;2023-04-01T03:56:08;57.70;;;3.00;;
1308;SDS011;647;48.840;9.314;2023-04-01T03:58:35;58.80;;;2.73;;
1308;SDS011;647;48.840;9.314;2023-04-01T04:01:12;58.50;;;2.60;;
1308;SDS011;647;48.840;9.314;2023-04-01T04:03:39;59.27;;;2.93;;
1308;SDS011;647;48.840;9.314;2023-04-01T04:06:09;57.50;;;2.60;;
1308;SDS011;647;48.840;9.314;2023-04-01T04:08:38;57.50;;;2.50;;
1308;SDS011;647;48.840;9.314;2023-04-01T04:11:05;59.07;;;2.83;;
1308;SDS011;647;48.840;9.314;2023-04-01T04:13:32;59.13;;;2.83;;
1308;SDS011;647;48.840;9.314;2023-04-01T04:16:00;57.57;;;2.53;;
1308;SDS011;647;48.840;9.314;2023-04-01T04:18:28;58.37;;;2.90;;
1308;SDS011;647;48.840;9.314;2023-04-01T04:20:55;58.47;;;3.23;;
1308;SDS011;647;48.840;9.314;2023-04-01T04:23:22;57.07;;;2.67;;
1308;SDS011;647;48.840;9.314;2023-04-01T04:25:57;57.37;;;2.20;;
1308;SDS011;647;48.840;9.314;2023-04-01T04:28:25;59.93;;;2.93;;
1308;SDS011;647;48.840;9.314;2023-04-01T04:30:52;58.00;;;2.60;;
1308;SDS011;647;48.840;9.314;2023-04-01T04:33:19;57.67;;;2.77;;
1308;SDS011;647;48.840;9.314;2023-04-01T04:35:46;58.17;;;2.50;;
1308;SDS011;647;48.840;9.314;2023-04-01T04:38:13;57.30;;;2.40;;
1308;SDS011;647;48.840;9.314;2023-04-01T04:40:41;58.50;;;2.80;;
1308;SDS011;647;48.840;9.314;2023-04-01T04:43:11;57.60;;;2.60;;
1308;SDS011;647;48.840;9.314;2023-04-01T04:45:38;57.70;;;2.33;;
1308;SDS011;647;48.840;9.314;2023-04-01T04:48:06;56.90;;;2.47;;
1308;SDS011;647;48.840;9.314;2023-04-01T04:50:34;56.77;;;2.20;;
1308;SDS011;647;48.840;9.314;2023-04-01T04:53:01;58.00;;;2.70;;
1308;SDS011;647;48.840;9.314;2023-04-01T04:55:28;56.77;;;2.50;;
1308;SDS011;647;48.840;9.314;2023-04-01T04:57:55;58.60;;;2.70;;
1308;SDS011;647;48.840;9.314;2023-04-01T05:00:24;57.33;;;2.30;;
1308;SDS011;647;48.840;9.314;2023-04-01T05:02:51;57.37;;;2.33;;
1308;SDS011;647;48.840;9.314;2023-04-01T05:05:18;57.40;;;2.63;;
1308;SDS011;647;48.840;9.314;2023-04-01T05:07:45;57.60;;;2.70;;
1308;SDS011;647;48.840;9.314;2023-04-01T05:10:12;57.80;;;2.60;;
1308;SDS011;647;48.840;9.314;2023-04-01T05:12:39;57.87;;;2.40;;
1308;SDS011;647;48.840;9.314;2023-04-01T05:15:07;57.50;;;2.70;;
1308;SDS011;647;48.840;9.314;2023-04-01T05:17:35;58.27;;;2.50;;
1308;SDS011;647;48.840;9.314;2023-04-01T05:20:03;56.83;;;2.60;;
1308;SDS011;647;48.840;9.314;2023-04-01T05:22:30;57.57;;;2.80;;
1308;SDS011;647;48.840;9.314;2023-04-01T05:24:57;58.80;;;2.60;;
1308;SDS011;647;48.840;9.314;2023-04-01T05:27:24;58.53;;;2.50;;
1308;SDS011;647;48.840;9.314;2023-04-01T05:29:51;57.90;;;2.93;;
1308;SDS011;647;48.840;9.314;2023-04-01T05:32:18;58.80;;;2.70;;
1308;SDS011;647;48.840;9.314;2023-04-01T05:34:47;57.77;;;2.70;;
1308;SDS011;647;48.840;9.314;2023-04-01T05:37:16;57.67;;;2.90;;
1308;SDS011;647;48.840;9.314;2023-04-01T05:39:44;60.53;;;2.93;;
1308;SDS011;647;48.840;9.314;2023-04-01T05:42:11;58.10;;;2.93;;
1308;SDS011;647;48.840;9.314;2023-04-01T05:44:38;58.40;;;2.87;;
1308;SDS011;647;48.840;9.314;2023-04-01T05:47:05;57.17;;;2.63;;
1308;SDS011;647;48.840;9.314;2023-04-01T05:49:33;57.60;;;2.80;;
1308;SDS011;647;48.840;9.314;2023-04-01T05:52:01;58.07;;;2.70;;
1308;SDS011;647;48.840;9.314;2023-04-01T05:54:28;58.40;;;2.60;;
1308;SDS011;647;48.840;9.314;2023-04-01T05:56:55;58.47;;;2.70;;
1308;SDS011;647;48.840;9.314;2023-04-01T05:59:22;58.80;;;2.97;;
1308;SDS011;647;48.840;9.314;2023-04-01T06:01:50;61.10;;;2.87;;
1308;SDS011;647;48.840;9.314;2023-04-01T06:04:17;60.03;;;2.70;;
1308;SDS011;647;48.840;9.314;2023-04-01T06:06:44;61.47;;;2.70;;
1308;SDS011;647;48.840;9.314;2023-04-01T06:09:14;57.40;;;2.53;;
1308;SDS011;647;48.840;9.314;2023-04-01T06:11:45;60.07;;;3.53;;
1308;SDS011;647;48.840;9.314;2023-04-01T06:14:17;57.43;;;2.53;;
1308;SDS011;647;48.840;9.314;2023-04-01T06:16:50;60.10;;;2.80;;
1308;SDS011;647;48.840;9.314;2023-04-01T06:19:31;59.20;;;2.50;;
1308;SDS011;647;48.840;9.314;2023-04-01T06:22:17;57.70;;;2.60;;
1308;SDS011;647;48.840;9.314;2023-04-01T06:24:53;57.57;;;2.50;;
1308;SDS011;647;48.840;9.314;2023-04-01T06:27:31;58.43;;;2.70;;
1308;SDS011;647;48.840;9.314;2023-04-01T06:30:05;58.20;;;2.60;;
1308;SDS011;647;48.840;9.314;2023-04-01T06:32:46;60.80;;;3.37;;
1308;SDS011;647;48.840;9.314;2023-04-01T06:35:23;57.87;;;2.30;;
1308;SDS011;647;48.840;9.314;2023-04-01T06:37:55;62.10;;;2.80;;
1308;SDS011;647;48.840;9.314;2023-04-01T06:43:12;57.77;;;2.30;;
1308;SDS011;647;48.840;9.314;2023-04-01T06:45:45;56.93;;;2.20;;
1308;SDS011;647;48.840;9.314;2023-04-01T06:48:29;58.90;;;2.53;;
1308;SDS011;647;48.840;9.314;2023-04-01T06:51:00;58.37;;;2.33;;
1308;SDS011;647;48.840;9.314;2023-04-01T06:53:32;58.77;;;2.30;;
1308;SDS011;647;48.840;9.314;2023-04-01T06:56:03;57.50;;;2.27;;
1308;SDS011;647;48.840;9.314;2023-04-01T06:58:35;57.80;;;2.67;;
1308;SDS011;647;48.840;9.314;2023-04-01T07:01:04;58.10;;;2.57;;
1308;SDS011;647;48.840;9.314;2023-04-01T07:03:33;58.40;;;2.80;;
1308;SDS011;647;48.840;9.314;2023-04-01T07:06:02;56.67;;;2.10;;
1308;SDS011;647;48.840;9.314;2023-04-01T07:08:30;57.67;;;2.60;;
1308;SDS011;647;48.840;9.314;2023-04-01T07:10:58;56.80;;;2.23;;
1308;SDS011;647;48.840;9.314;2023-04-01T07:13:27;59.10;;;2.23;;
1308;SDS011;647;48.840;9.314;2023-04-01T07:16:03;57.83;;;2.57;;
1308;SDS011;647;48.840;9.314;2023-04-01T07:18:32;57.87;;;2.17;;
1308;SDS011;647;48.840;9.314;2023-04-01T07:21:02;57.67;;;2.27;;
1308;SDS011;647;48.840;9.314;2023-04-01T07:23:31;57.00;;;2.30;;
1308;SDS011;647;48.840;9.314;2023-04-01T07:26:00;57.33;;;2.40;;
1308;SDS011;647;48.840;9.314;2023-04-01T07:28:29;58.60;;;2.10;;
1308;SDS011;647;48.840;9.314;2023-04-01T07:31:00;57.17;;;2.30;;
1308;SDS011;647;48.840;9.314;2023-04-01T07:33:35;57.77;;;2.80;;
1308;SDS011;647;48.840;9.314;2023-04-01T07:36:07;58.90;;;2.43;;
1308;SDS011;647;48.840;9.314;2023-04-01T07:38:39;58.00;;;2.50;;
1308;SDS011;647;48.840;9.314;2023-04-01T07:41:12;57.17;;;2.30;;
1308;SDS011;647;48.840;9.314;2023-04-01T07:43:44;58.30;;;2.40;;
1308;SDS011;647;48.840;9.314;2023-04-01T07:46:19;58.57;;;2.80;;
1308;SDS011;647;48.840;9.314;2023-04-01T07:48:52;57.73;;;2.20;;
1308;SDS011;647;48.840;9.314;2023-04-01T07:51:23;57.10;;;2.30;;
1308;SDS011;647;48.840;9.314;2023-04-01T07:53:56;57.57;;;2.63;;
1308;SDS011;647;48.840;9.314;2023-04-01T07:56:25;57.80;;;2.30;;
1308;SDS011;647;48.840;9.314;2023-04-01T07:58:55;57.80;;;2.43;;
1308;SDS011;647;48.840;9.314;2023-04-01T08:01:27;58.50;;;2.40;;
1308;SDS011;647;48.840;9.314;2023-04-01T08:04:06;57.37;;;2.50;;
1308;SDS011;647;48.840;9.314;2023-04-01T08:06:41;57.60;;;2.33;;
1308;SDS011;647;48.840;9.314;2023-04-01T08:09:13;59.70;;;2.67;;
1308;SDS011;647;48.840;9.314;2023-04-01T08:11:45;60.07;;;2.87;;
1308;SDS011;647;48.840;9.314;2023-04-01T08:14:15;57.77;;;2.47;;
1308;SDS011;647;48.840;9.314;2023-04-01T08:16:45;58.60;;;2.57;;
1308;SDS011;647;48.840;9.314;2023-04-01T08:19:18;57.97;;;2.50;;
1308;SDS011;647;48.840;9.314;2023-04-01T08:21:47;59.10;;;2.80;;
1308;SDS011;647;48.840;9.314;2023-04-01T08:24:17;57.00;;;2.40;;
1308;SDS011;647;48.840;9.314;2023-04-01T08:26:48;56.70;;;2.40;;
1308;SDS011;647;48.840;9.314;2023-04-01T08:29:17;57.50;;;2.60;;
1308;SDS011;647;48.840;9.314;2023-04-01T08:31:47;59.27;;;2.70;;
1308;SDS011;647;48.840;9.314;2023-04-01T08:34:17;58.20;;;2.33;;
1308;SDS011;647;48.840;9.314;2023-04-01T08:36:47;56.97;;;2.20;;
1308;SDS011;647;48.840;9.314;2023-04-01T08:39:19;60.70;;;2.80;;
1308;SDS011;647;48.840;9.314;2023-04-01T08:42:00;59.20;;;2.77;;
1308;SDS011;647;48.840;9.314;2023-04-01T08:44:39;59.17;;;3.20;;
1308;SDS011;647;48.840;9.314;2023-04-01T08:50:15;57.17;;;2.43;;
1308;SDS011;647;48.840;9.314;2023-04-01T08:52:46;57.90;;;2.63;;
1308;SDS011;647;48.840;9.314;2023-04-01T08:55:25;57.20;;;2.30;;
1308;SDS011;647;48.840;9.314;2023-04-01T08:58:04;57.20;;;2.53;;
1308;SDS011;647;48.840;9.314;2023-04-01T09:00:38;57.90;;;2.60;;
1308;SDS011;647;48.840;9.314;2023-04-01T09:03:16;60.70;;;2.63;;
1308;SDS011;647;48.840;9.314;2023-04-01T09:05:56;57.80;;;2.50;;
1308;SDS011;647;48.840;9.314;2023-04-01T09:08:29;58.30;;;2.43;;
1308;SDS011;647;48.840;9.314;2023-04-01T09:11:16;57.20;;;2.60;;
1308;SDS011;647;48.840;9.314;2023-04-01T09:13:49;56.87;;;2.43;;
1308;SDS011;647;48.840;9.314;2023-04-01T09:16:23;57.17;;;2.30;;
1308;SDS011;647;48.840;9.314;2023-04-01T09:24:34;57.00;;;2.40;;
1308;SDS011;647;48.840;9.314;2023-04-01T09:27:09;57.47;;;2.60;;
1308;SDS011;647;48.840;9.314;2023-04-01T09:32:26;57.30;;;2.30;;
1308;SDS011;647;48.840;9.314;2023-04-01T09:35:02;58.07;;;2.47;;
1308;SDS011;647;48.840;9.314;2023-04-01T09:37:35;58.17;;;2.40;;
1308;SDS011;647;48.840;9.314;2023-04-01T09:40:16;57.03;;;2.40;;
1308;SDS011;647;48.840;9.314;2023-04-01T09:42:45;59.60;;;2.13;;
1308;SDS011;647;48.840;9.314;2023-04-01T09:45:18;57.60;;;2.10;;
1308;SDS011;647;48.840;9.314;2023-04-01T09:47:51;57.20;;;2.20;;
1308;SDS011;647;48.840;9.314;2023-04-01T09:50:29;56.47;;;2.20;;
1308;SDS011;647;48.840;9.314;2023-04-01T09:53:00;56.77;;;2.23;;
1308;SDS011;647;48.840;9.314;2023-04-01T09:55:47;57.27;;;2.33;;
1308;SDS011;647;48.840;9.314;2023-04-01T09:58:24;57.10;;;2.10;;
1308;SDS011;647;48.840;9.314;2023-04-01T10:00:55;56.87;;;2.27;;
1308;SDS011;647;48.840;9.314;2023-04-01T10:03:41;56.90;;;2.33;;
1308;SDS011;647;48.840;9.314;2023-04-01T10:14:40;56.93;;;2.00;;
1308;SDS011;647;48.840;9.314;2023-04-01T10:17:15;57.37;;;2.50;;
1308;SDS011;647;48.840;9.314;2023-04-01T10:19:59;57.10;;;2.30;;
1308;SDS011;647;48.840;9.314;2023-04-01T10:22:32;56.60;;;2.30;;
1308;SDS011;647;48.840;9.314;2023-04-01T10:30:45;56.80;;;2.33;;
1308;SDS011;647;48.840;9.314;2023-04-01T10:33:33;56.97;;;2.23;;
1308;SDS011;647;48.840;9.314;2023-04-01T10:41:48;56.10;;;2.10;;
1308;SDS011;647;48.840;9.314;2023-04-01T10:44:25;57.30;;;2.00;;
1308;SDS011;647;48.840;9.314;2023-04-01T10:49:48;56.93;;;2.57;;
1308;SDS011;647;48.840;9.314;2023-04-01T10:57:54;57.10;;;2.10;;
1308;SDS011;647;48.840;9.314;2023-04-01T11:00:30;56.53;;;2.30;;
1308;SDS011;647;48.840;9.314;2023-04-01T11:03:07;56.67;;;2.20;;
1308;SDS011;647;48.840;9.314;2023-04-01T11:08:56;58.43;;;2.20;;
1308;SDS011;647;48.840;9.314;2023-04-01T11:11:39;56.77;;;2.03;;
1308;SDS011;647;48.840;9.314;2023-04-01T11:19:47;56.60;;;2.10;;
1308;SDS011;647;48.840;9.314;2023-04-01T11:25:13;57.10;;;2.20;;
1308;SDS011;647;48.840;9.314;2023-04-01T11:27:50;56.90;;;2.40;;
1308;SDS011;647;48.840;9.314;2023-04-01T11:30:22;56.90;;;2.27;;
1308;SDS011;647;48.840;9.314;2023-04-01T11:32:54;56.77;;;1.80;;
1308;SDS011;647;48.840;9.314;2023-04-01T11:35:31;56.77;;;1.70;;
1308;SDS011;647;48.840;9.314;2023-04-01T11:38:01;56.77;;;2.03;;
1308;SDS011;647;48.840;9.314;2023-04-01T11:40:35;56.87;;;2.40;;
1308;SDS011;647;48.840;9.314;2023-04-01T11:43:06;56.90;;;2.43;;
1308;SDS011;647;48.840;9.314;2023-04-01T11:45:35;57.50;;;1.93;;
1308;SDS011;647;48.840;9.314;2023-04-01T11:48:07;57.40;;;2.10;;
1308;SDS011;647;48.840;9.314;2023-04-01T11:50:42;57.30;;;2.27;;
1308;SDS011;647;48.840;9.314;2023-04-01T11:53:15;56.60;;;1.97;;
1308;SDS011;647;48.840;9.314;2023-04-01T11:55:50;56.83;;;2.20;;
1308;SDS011;647;48.840;9.314;2023-04-01T11:58:26;56.83;;;2.27;;
1308;SDS011;647;48.840;9.314;2023-04-01T12:01:04;56.80;;;2.23;;
1308;SDS011;647;48.840;9.314;2023-04-01T12:03:43;59.40;;;2.60;;
1308;SDS011;647;48.840;9.314;2023-04-01T12:06:14;56.90;;;2.20;;
1308;SDS011;647;48.840;9.314;2023-04-01T12:08:45;56.67;;;2.03;;
1308;SDS011;647;48.840;9.314;2023-04-01T12:11:21;56.87;;;2.10;;
1308;SDS011;647;48.840;9.314;2023-04-01T12:13:51;56.57;;;2.10;;
1308;SDS011;647;48.840;9.314;2023-04-01T12:16:24;56.83;;;2.10;;
1308;SDS011;647;48.840;9.314;2023-04-01T12:18:53;56.57;;;2.03;;
1308;SDS011;647;48.840;9.314;2023-04-01T12:21:25;56.87;;;2.13;;
1308;SDS011;647;48.840;9.314;2023-04-01T12:23:58;56.77;;;2.10;;
1308;SDS011;647;48.840;9.314;2023-04-01T12:29:11;56.07;;;1.93;;
1308;SDS011;647;48.840;9.314;2023-04-01T12:31:42;58.47;;;2.63;;
1308;SDS011;647;48.840;9.314;2023-04-01T12:36:59;57.20;;;2.00;;
1308;SDS011;647;48.840;9.314;2023-04-01T12:39:33;56.63;;;2.13;;
1308;SDS011;647;48.840;9.314;2023-04-01T12:42:05;57.07;;;2.20;;
1308;SDS011;647;48.840;9.314;2023-04-01T12:44:39;56.67;;;2.40;;
1308;SDS011;647;48.840;9.314;2023-04-01T12:52:39;56.83;;;2.30;;
1308;SDS011;647;48.840;9.314;2023-04-01T12:55:26;56.77;;;2.07;;
1308;SDS011;647;48.840;9.314;2023-04-01T12:58:00;58.67;;;2.30;;
1308;SDS011;647;48.840;9.314;2023-04-01T13:03:37;56.93;;;2.07;;
1308;SDS011;647;48.840;9.314;2023-04-01T13:06:18;56.97;;;2.10;;
1308;SDS011;647;48.840;9.314;2023-04-01T13:08:49;56.87;;;2.03;;
1308;SDS011;647;48.840;9.314;2023-04-01T13:11:20;56.57;;;2.10;;
1308;SDS011;647;48.840;9.314;2023-04-01T13:16:38;57.27;;;2.20;;
1308;SDS011;647;48.840;9.314;2023-04-01T13:19:08;56.60;;;2.00;;
1308;SDS011;647;48.840;9.314;2023-04-01T13:21:41;57.00;;;2.50;;
1308;SDS011;647;48.840;9.314;2023-04-01T13:24:18;58.07;;;2.13;;
1308;SDS011;647;48.840;9.314;2023-04-01T13:26:50;57.40;;;2.20;;
1308;SDS011;647;48.840;9.314;2023-04-01T13:29:20;57.00;;;2.10;;
1308;SDS011;647;48.840;9.314;2023-04-01T13:31:55;56.97;;;2.30;;
1308;SDS011;647;48.840;9.314;2023-04-01T13:34:38;56.90;;;1.90;;
1308;SDS011;647;48.840;9.314;2023-04-01T13:37:20;56.80;;;2.10;;
1308;SDS011;647;48.840;9.314;2023-04-01T13:39:57;56.87;;;2.17;;
1308;SDS011;647;48.840;9.314;2023-04-01T13:42:28;57.00;;;2.10;;
1308;SDS011;647;48.840;9.314;2023-04-01T13:44:56;59.10;;;2.07;;
1308;SDS011;647;48.840;9.314;2023-04-01T13:50:17;57.00;;;2.30;;
1308;SDS011;647;48.840;9.314;2023-04-01T13:52:56;56.87;;;2.07;;
1308;SDS011;647;48.840;9.314;2023-04-01T13:58:13;56.50;;;2.13;;
1308;SDS011;647;48.840;9.314;2023-04-01T14:01:00;57.50;;;2.27;;
1308;SDS011;647;48.840;9.314;2023-04-01T14:03:32;57.50;;;2.30;;
1308;SDS011;647;48.840;9.314;2023-04-01T14:06:13;56.93;;;2.00;;
1308;SDS011;647;48.840;9.314;2023-04-01T14:08:47;57.40;;;2.00;;
1308;SDS011;647;48.840;9.314;2023-04-01T14:11:21;56.73;;;1.97;;
1308;SDS011;647;48.840;9.314;2023-04-01T14:13:56;57.00;;;2.10;;
1308;SDS011;647;48.840;9.314;2023-04-01T14:16:47;56.27;;;2.20;;
1308;SDS011;647;48.840;9.314;2023-04-01T14:19:22;56.70;;;1.93;;
1308;SDS011;647;48.840;9.314;2023-04-01T14:21:57;56.80;;;2.00;;
1308;SDS011;647;48.840;9.314;2023-04-01T14:24:32;56.80;;;1.90;;
1308;SDS011;647;48.840;9.314;2023-04-01T14:27:15;57.13;;;2.00;;
1308;SDS011;647;48.840;9.314;2023-04-01T14:29:53;56.57;;;2.30;;
1308;SDS011;647;48.840;9.314;2023-04-01T14:32:25;56.70;;;2.27;;
1308;SDS011;647;48.840;9.314;2023-04-01T14:34:58;56.57;;;2.10;;
1308;SDS011;647;48.840;9.314;2023-04-01T14:37:40;56.93;;;2.20;;
1308;SDS011;647;48.840;9.314;2023-04-01T14:40:20;56.67;;;2.33;;
1308;SDS011;647;48.840;9.314;2023-04-01T14:42:54;56.87;;;2.00;;
1308;SDS011;647;48.840;9.314;2023-04-01T14:48:07;56.77;;;2.07;;
1308;SDS011;647;48.840;9.314;2023-04-01T14:50:41;57.07;;;2.20;;
1308;SDS011;647;48.840;9.314;2023-04-01T14:53:13;57.27;;;2.50;;
1308;SDS011;647;48.840;9.314;2023-04-01T14:55:48;56.70;;;1.97;;
1308;SDS011;647;48.840;9.314;2023-04-01T14:58:17;57.70;;;2.33;;
1308;SDS011;647;48.840;9.314;2023-04-01T15:00:48;56.60;;;2.47;;
1308;SDS011;647;48.840;9.314;2023-04-01T15:03:17;57.07;;;2.23;;
1308;SDS011;647;48.840;9.314;2023-04-01T15:05:47;57.00;;;2.37;;
1308;SDS011;647;48.840;9.314;2023-04-01T15:08:18;56.97;;;2.10;;
1308;SDS011;647;48.840;9.314;2023-04-01T15:10:58;56.67;;;1.70;;
1308;SDS011;647;48.840;9.314;2023-04-01T15:13:42;56.80;;;2.10;;
1308;SDS011;647;48.840;9.314;2023-04-01T15:16:17;56.90;;;2.07;;
1308;SDS011;647;48.840;9.314;2023-04-01T15:18:47;56.77;;;2.10;;
1308;SDS011;647;48.840;9.314;2023-04-01T15:21:19;57.07;;;2.10;;
1308;SDS011;647;48.840;9.314;2023-04-01T15:23:57;56.87;;;2.17;;
1308;SDS011;647;48.840;9.314;2023-04-01T15:26:32;57.73;;;2.20;;
1308;SDS011;647;48.840;9.314;2023-04-01T15:29:11;56.53;;;2.20;;
1308;SDS011;647;48.840;9.314;2023-04-01T15:31:44;56.90;;;2.17;;
1308;SDS011;647;48.840;9.314;2023-04-01T15:34:18;57.20;;;2.00;;
1308;SDS011;647;48.840;9.314;2023-04-01T15:36:51;56.70;;;2.17;;
1308;SDS011;647;48.840;9.314;2023-04-01T15:39:23;56.17;;;2.20;;
1308;SDS011;647;48.840;9.314;2023-04-01T15:41:56;56.53;;;2.00;;
1308;SDS011;647;48.840;9.314;2023-04-01T15:44:34;56.43;;;2.23;;
1308;SDS011;647;48.840;9.314;2023-04-01T15:47:05;58.40;;;2.27;;
1308;SDS011;647;48.840;9.314;2023-04-01T15:49:35;56.47;;;2.07;;
1308;SDS011;647;48.840;9.314;2023-04-01T15:52:09;56.60;;;2.00;;
1308;SDS011;647;48.840;9.314;2023-04-01T15:54:54;56.87;;;2.00;;
1308;SDS011;647;48.840;9.314;2023-04-01T15:57:26;56.67;;;2.00;;
1308;SDS011;647;48.840;9.314;2023-04-01T16:02:39;55.80;;;2.30;;
1308;SDS011;647;48.840;9.314;2023-04-01T16:05:08;56.67;;;2.03;;
1308;SDS011;647;48.840;9.314;2023-04-01T16:07:43;56.57;;;2.50;;
1308;SDS011;647;48.840;9.314;2023-04-01T16:10:19;56.70;;;2.13;;
1308;SDS011;647;48.840;9.314;2023-04-01T16:12:52;57.10;;;2.13;;
1308;SDS011;647;48.840;9.314;2023-04-01T16:15:23;56.80;;;2.20;;
1308;SDS011;647;48.840;9.314;2023-04-01T16:20:43;56.33;;;2.40;;
1308;SDS011;647;48.840;9.314;2023-04-01T16:23:13;57.50;;;2.20;;
1308;SDS011;647;48.840;9.314;2023-04-01T16:25:49;58.90;;;2.30;;
1308;SDS011;647;48.840;9.314;2023-04-01T16:28:19;56.90;;;2.03;;
1308;SDS011;647;48.840;9.314;2023-04-01T16:30:54;58.10;;;2.10;;
1308;SDS011;647;48.840;9.314;2023-04-01T16:33:22;56.73;;;2.13;;
1308;SDS011;647;48.840;9.314;2023-04-01T16:35:55;56.87;;;2.00;;
1308;SDS011;647;48.840;9.314;2023-04-01T16:38:25;56.90;;;1.97;;
1308;SDS011;647;48.840;9.314;2023-04-01T16:43:38;57.30;;;2.17;;
1308;SDS011;647;48.840;9.314;2023-04-01T16:49:03;56.90;;;2.30;;
1308;SDS011;647;48.840;9.314;2023-04-01T16:51:32;56.83;;;2.27;;
1308;SDS011;647;48.840;9.314;2023-04-01T16:54:02;56.80;;;2.40;;
1308;SDS011;647;48.840;9.314;2023-04-01T16:56:36;56.63;;;2.20;;
1308;SDS011;647;48.840;9.314;2023-04-01T16:59:13;56.57;;;2.13;;
1308;SDS011;647;48.840;9.314;2023-04-01T17:01:43;56.90;;;2.17;;
1308;SDS011;647;48.840;9.314;2023-04-01T17:04:13;57.20;;;2.20;;
1308;SDS011;647;48.840;9.314;2023-04-01T17:06:44;56.87;;;2.20;;
1308;SDS011;647;48.840;9.314;2023-04-01T17:09:18;56.77;;;2.57;;
1308;SDS011;647;48.840;9.314;2023-04-01T17:11:49;58.00;;;2.43;;